Terminal Aerodrome Forecast
Issued by NWS Mt. Holly, NJ

Home | Current Version | Previous Version | Text Only | Print | Product List | Glossary On
Versions: 1 2 3 4 5 6 7 8 9 10 11 12 13 14 15 16
000
FTUS41 KPHI 270406 AAA
TAFRDG
TAF AMD
KRDG 270406Z 2704/2724 16005KT P6SM SCT070 BKN100
      TEMPO 2704/2706 6SM -SHRA OVC060
     FM270900 VRB02KT 4SM BR FEW020 OVC080
     FM271100 20005KT P6SM BKN150
     FM271800 23009KT P6SM SCT050 PROB30 2719/2722 -SHRA BKN035=

USA.gov is the U.S. government's official web portal to all federal, state and local government web resources and services.